createdAt,value
2018-08-12T00:00:17.013Z,5.40
2018-08-12T00:02:45.153Z,7.40
2018-08-12T00:05:13.971Z,7.63
2018-08-12T00:07:42.396Z,4.40
2018-08-12T00:10:10.977Z,7.47
2018-08-12T00:12:39.159Z,7.60
2018-08-12T00:15:08.367Z,4.37
2018-08-12T00:17:36.352Z,7.77
2018-08-12T00:20:05.137Z,11.87
2018-08-12T00:22:33.098Z,7.00
2018-08-12T00:25:01.075Z,8.07
2018-08-12T00:27:29.076Z,6.93
2018-08-12T00:29:57.145Z,4.20
2018-08-12T00:32:25.246Z,6.40
2018-08-12T00:34:53.415Z,6.40
2018-08-12T00:39:55.914Z,8.37
2018-08-12T00:42:24.009Z,5.30
2018-08-12T00:44:52.107Z,6.90
2018-08-12T00:47:20.506Z,5.53
2018-08-12T00:49:48.706Z,4.37
2018-08-12T00:52:16.910Z,10.93
2018-08-12T00:54:45.373Z,8.07
2018-08-12T00:57:15.335Z,12.63
2018-08-12T00:59:43.323Z,11.40
2018-08-12T01:02:11.453Z,9.97
2018-08-12T01:04:39.516Z,6.90
2018-08-12T01:07:07.573Z,9.47
2018-08-12T01:09:35.609Z,10.67
2018-08-12T01:12:04.573Z,11.23
2018-08-12T01:14:32.598Z,9.43
2018-08-12T01:17:00.667Z,9.07
2018-08-12T01:19:28.698Z,8.70
2018-08-12T01:21:56.710Z,10.13
2018-08-12T01:24:24.837Z,9.50
2018-08-12T01:26:52.881Z,14.60
2018-08-12T01:29:20.928Z,15.37
2018-08-12T01:31:49.160Z,10.87
2018-08-12T01:34:17.414Z,10.90
2018-08-12T01:36:45.520Z,13.43
2018-08-12T01:39:13.517Z,15.67
2018-08-12T01:41:41.557Z,8.93
2018-08-12T01:44:09.641Z,10.93
2018-08-12T01:46:37.655Z,15.97
2018-08-12T01:49:05.800Z,10.30
2018-08-12T01:51:33.766Z,12.10
2018-08-12T01:54:01.761Z,8.53
2018-08-12T01:56:29.725Z,21.97
2018-08-12T01:58:57.700Z,12.27
2018-08-12T02:01:25.680Z,13.87
2018-08-12T02:03:53.717Z,13.77
2018-08-12T02:06:21.745Z,13.03
2018-08-12T02:08:49.835Z,16.73
2018-08-12T02:11:17.834Z,21.97
2018-08-12T02:13:46.011Z,14.93
2018-08-12T02:16:13.961Z,13.57
2018-08-12T02:18:42.006Z,10.10
2018-08-12T02:21:10.008Z,8.77
2018-08-12T02:23:38.075Z,12.00
2018-08-12T02:26:06.066Z,21.73
2018-08-12T02:28:34.040Z,14.47
2018-08-12T02:31:02.158Z,12.90
2018-08-12T02:33:30.157Z,20.57
2018-08-12T02:36:04.498Z,12.13
2018-08-12T02:38:32.490Z,10.60
2018-08-12T02:41:00.522Z,19.10
2018-08-12T02:43:28.826Z,9.30
2018-08-12T02:45:56.817Z,11.50
2018-08-12T02:48:24.835Z,25.03
2018-08-12T02:50:52.901Z,13.03
2018-08-12T02:53:21.049Z,10.90
2018-08-12T02:55:50.941Z,13.90
2018-08-12T02:58:21.129Z,9.73
2018-08-12T03:00:51.319Z,10.20
2018-08-12T03:03:20.599Z,12.50
2018-08-12T03:05:48.915Z,8.43
2018-08-12T03:08:18.041Z,8.13
2018-08-12T03:10:46.700Z,9.20
2018-08-12T03:13:15.069Z,10.27
2018-08-12T03:15:43.704Z,14.07
2018-08-12T03:18:11.796Z,10.07
2018-08-12T03:20:41.708Z,10.43
2018-08-12T03:23:12.092Z,7.33
2018-08-12T03:25:42.344Z,8.47
2018-08-12T03:28:10.617Z,12.83
2018-08-12T03:30:38.731Z,9.67
2018-08-12T03:33:06.738Z,11.73
2018-08-12T03:35:36.583Z,7.60
2018-08-12T03:38:05.397Z,7.67
2018-08-12T03:40:33.365Z,9.83
2018-08-12T03:43:02.184Z,5.43
2018-08-12T03:45:30.151Z,7.20
2018-08-12T03:47:58.136Z,5.83
2018-08-12T03:50:26.189Z,13.47
2018-08-12T03:52:54.336Z,8.90
2018-08-12T03:55:22.350Z,10.13
2018-08-12T03:57:50.445Z,7.07
2018-08-12T04:00:19.548Z,7.83
2018-08-12T04:02:48.605Z,4.37
2018-08-12T04:05:17.292Z,7.73
2018-08-12T04:07:45.349Z,4.23
2018-08-12T04:10:14.726Z,12.10
2018-08-12T04:12:42.700Z,5.03
2018-08-12T04:15:12.281Z,10.33
2018-08-12T04:17:40.727Z,5.60
2018-08-12T04:20:09.819Z,6.90
2018-08-12T04:22:37.856Z,7.00
2018-08-12T04:25:05.820Z,10.80
2018-08-12T04:27:33.771Z,10.40
2018-08-12T04:30:01.728Z,7.83
2018-08-12T04:32:29.693Z,4.80
2018-08-12T04:34:57.660Z,5.63
2018-08-12T04:37:25.635Z,6.60
2018-08-12T04:39:53.640Z,7.57
2018-08-12T04:42:21.665Z,4.73
2018-08-12T04:44:49.708Z,6.50
2018-08-12T04:47:17.852Z,6.57
2018-08-12T04:49:45.873Z,7.33
2018-08-12T04:52:13.880Z,10.33
2018-08-12T04:54:41.942Z,6.93
2018-08-12T04:57:10.008Z,6.93
2018-08-12T04:59:38.051Z,6.40
2018-08-12T05:02:06.068Z,7.67
2018-08-12T05:04:34.865Z,8.73
2018-08-12T05:07:03.797Z,6.07
2018-08-12T05:09:31.882Z,9.03
2018-08-12T05:11:59.852Z,7.00
2018-08-12T05:14:27.967Z,6.47
2018-08-12T05:16:55.988Z,7.07
2018-08-12T05:19:24.365Z,6.17
2018-08-12T05:21:52.464Z,6.53
2018-08-12T05:24:20.637Z,10.93
2018-08-12T05:26:48.892Z,8.30
2018-08-12T05:29:16.973Z,4.37
2018-08-12T05:31:45.251Z,5.77
2018-08-12T05:34:13.288Z,4.80
2018-08-12T05:36:41.280Z,4.23
2018-08-12T05:39:11.043Z,7.53
2018-08-12T05:41:39.055Z,4.20
2018-08-12T05:44:07.052Z,6.73
2018-08-12T05:46:35.072Z,8.07
2018-08-12T05:49:03.076Z,6.10
2018-08-12T05:51:31.114Z,3.40
2018-08-12T05:53:59.055Z,4.47
2018-08-12T05:56:27.252Z,6.13
2018-08-12T05:58:55.352Z,3.50
2018-08-12T06:01:23.768Z,16.00
2018-08-12T06:03:52.023Z,5.53
2018-08-12T06:06:20.163Z,5.87
2018-08-12T06:08:48.736Z,6.53
2018-08-12T06:11:17.125Z,4.00
2018-08-12T06:13:45.465Z,9.43
2018-08-12T06:16:13.602Z,8.13
2018-08-12T06:18:41.620Z,3.90
2018-08-12T06:21:09.639Z,7.07
2018-08-12T06:23:37.651Z,7.00
2018-08-12T06:26:05.886Z,7.13
2018-08-12T06:28:33.888Z,6.67
2018-08-12T06:31:01.856Z,3.67
2018-08-12T06:33:30.492Z,6.13
2018-08-12T06:35:58.593Z,7.20
2018-08-12T06:38:26.544Z,3.77
2018-08-12T06:40:54.710Z,4.53
2018-08-12T06:43:23.104Z,3.30
2018-08-12T06:45:51.220Z,4.20
2018-08-12T06:48:19.615Z,7.50
2018-08-12T06:50:47.905Z,5.60
2018-08-12T06:53:16.589Z,4.70
2018-08-12T06:55:44.891Z,5.13
2018-08-12T06:58:13.098Z,12.30
2018-08-12T07:00:41.832Z,4.37
2018-08-12T07:03:10.353Z,3.83
2018-08-12T07:05:38.370Z,3.50
2018-08-12T07:08:06.381Z,2.87
2018-08-12T07:10:41.348Z,5.57
2018-08-12T07:13:09.241Z,4.93
2018-08-12T07:15:37.192Z,3.30
2018-08-12T07:18:05.552Z,4.60
2018-08-12T07:20:33.512Z,11.33
2018-08-12T07:23:01.522Z,7.40
2018-08-12T07:25:29.593Z,4.17
2018-08-12T07:27:57.697Z,3.63
2018-08-12T07:30:26.050Z,3.20
2018-08-12T07:32:54.191Z,6.40
2018-08-12T07:35:22.372Z,6.30
2018-08-12T07:37:50.575Z,7.43
2018-08-12T07:40:19.948Z,8.07
2018-08-12T07:42:49.977Z,4.10
2018-08-12T07:45:19.804Z,4.50
2018-08-12T07:47:48.134Z,4.00
2018-08-12T07:50:16.615Z,3.03
2018-08-12T07:52:45.681Z,5.27
2018-08-12T07:55:14.255Z,8.13
2018-08-12T07:57:43.831Z,3.97
2018-08-12T08:00:13.202Z,5.20
2018-08-12T08:02:41.784Z,4.53
2018-08-12T08:05:09.801Z,3.63
2018-08-12T08:07:38.169Z,3.40
2018-08-12T08:10:07.605Z,3.20
2018-08-12T08:12:36.635Z,4.40
2018-08-12T08:15:05.296Z,4.00
2018-08-12T08:17:33.300Z,6.43
2018-08-12T08:20:01.271Z,3.30
2018-08-12T08:22:29.198Z,5.43
2018-08-12T08:24:57.188Z,4.30
2018-08-12T08:27:25.429Z,3.27
2018-08-12T08:29:53.513Z,4.90
2018-08-12T08:32:21.627Z,5.40
2018-08-12T08:34:49.830Z,4.03
2018-08-12T08:37:18.120Z,2.57
2018-08-12T08:39:46.660Z,3.30
2018-08-12T08:42:14.636Z,4.33
2018-08-12T08:44:42.644Z,4.30
2018-08-12T08:47:10.756Z,4.97
2018-08-12T08:49:38.797Z,3.47
2018-08-12T08:52:06.783Z,3.63
2018-08-12T08:54:34.805Z,2.80
2018-08-12T08:57:02.857Z,3.33
2018-08-12T08:59:30.874Z,3.47
2018-08-12T09:01:58.877Z,2.40
2018-08-12T09:04:26.911Z,3.10
2018-08-12T09:06:55.078Z,2.30
2018-08-12T09:09:23.178Z,2.60
2018-08-12T09:11:51.192Z,2.30
2018-08-12T09:14:19.301Z,2.57
2018-08-12T09:16:47.461Z,5.10
2018-08-12T09:19:15.451Z,2.70
2018-08-12T09:21:43.465Z,3.70
2018-08-12T09:24:11.530Z,3.20
2018-08-12T09:26:39.554Z,3.47
2018-08-12T09:29:08.262Z,2.77
2018-08-12T09:31:36.227Z,4.10
2018-08-12T09:34:04.551Z,2.80
2018-08-12T09:36:32.603Z,9.03
2018-08-12T09:39:01.347Z,3.63
2018-08-12T09:41:29.540Z,2.83
2018-08-12T09:43:57.595Z,6.00
2018-08-12T09:46:25.761Z,3.63
2018-08-12T09:48:54.523Z,3.57
2018-08-12T09:51:23.434Z,2.63
2018-08-12T09:53:51.647Z,2.70
2018-08-12T09:56:19.951Z,2.57
2018-08-12T09:58:48.455Z,2.93
2018-08-12T10:01:16.704Z,6.83
2018-08-12T10:03:46.391Z,2.00
2018-08-12T10:06:14.716Z,2.30
2018-08-12T10:08:42.805Z,6.03
2018-08-12T10:11:10.998Z,5.43
2018-08-12T10:13:39.082Z,2.80
2018-08-12T10:16:07.118Z,3.97
2018-08-12T10:18:35.180Z,8.83
2018-08-12T10:21:03.288Z,3.63
2018-08-12T10:23:31.536Z,7.87
2018-08-12T10:26:00.375Z,3.73
2018-08-12T10:28:28.349Z,2.50
2018-08-12T10:30:56.442Z,2.53
2018-08-12T10:33:24.516Z,5.90
2018-08-12T10:35:52.679Z,2.00
2018-08-12T10:38:20.836Z,2.60
2018-08-12T10:40:49.116Z,2.83
2018-08-12T10:43:17.211Z,2.20
2018-08-12T10:45:45.484Z,3.27
2018-08-12T10:48:13.529Z,2.10
2018-08-12T10:50:41.669Z,3.17
2018-08-12T10:53:09.731Z,4.77
2018-08-12T10:55:37.941Z,2.23
2018-08-12T10:58:06.050Z,4.70
2018-08-12T11:00:36.051Z,5.10
2018-08-12T11:03:04.137Z,2.27
2018-08-12T11:05:32.210Z,3.47
2018-08-12T11:08:00.224Z,2.40
2018-08-12T11:10:29.460Z,5.80
2018-08-12T11:12:57.621Z,3.20
2018-08-12T11:15:25.735Z,4.43
2018-08-12T11:17:54.056Z,1.97
2018-08-12T11:20:22.402Z,2.07
2018-08-12T11:22:50.673Z,3.77
2018-08-12T11:25:19.015Z,4.87
2018-08-12T11:27:47.299Z,2.50
2018-08-12T11:30:16.527Z,1.70
2018-08-12T11:32:44.697Z,4.80
2018-08-12T11:35:14.343Z,2.70
2018-08-12T11:37:43.806Z,5.20
2018-08-12T11:40:12.735Z,4.00
2018-08-12T11:42:40.962Z,4.03
2018-08-12T11:45:11.223Z,2.00
2018-08-12T11:47:39.732Z,8.63
2018-08-12T11:50:09.995Z,2.00
2018-08-12T11:52:38.324Z,4.20
2018-08-12T11:55:06.861Z,3.83
2018-08-12T11:57:35.061Z,4.63
2018-08-12T12:00:03.090Z,3.40
2018-08-12T12:02:31.033Z,2.63
2018-08-12T12:04:59.091Z,3.27
2018-08-12T12:07:27.561Z,2.70
2018-08-12T12:09:55.736Z,6.60
2018-08-12T12:12:23.825Z,4.30
2018-08-12T12:14:51.896Z,5.00
2018-08-12T12:17:20.105Z,4.10
2018-08-12T12:19:48.708Z,2.47
2018-08-12T12:22:17.122Z,3.03
2018-08-12T12:24:45.352Z,4.03
2018-08-12T12:27:13.601Z,2.53
2018-08-12T12:29:41.738Z,3.60
2018-08-12T12:32:09.852Z,3.80
2018-08-12T12:34:37.927Z,4.23
2018-08-12T12:37:05.943Z,5.10
2018-08-12T12:39:33.895Z,4.77
2018-08-12T12:42:01.963Z,2.57
2018-08-12T12:44:31.457Z,2.27
2018-08-12T12:46:59.490Z,5.10
2018-08-12T12:49:27.754Z,5.10
2018-08-12T12:51:56.076Z,2.57
2018-08-12T12:54:24.398Z,3.00
2018-08-12T12:56:52.536Z,4.00
2018-08-12T12:59:20.713Z,2.43
2018-08-12T13:01:49.112Z,7.10
2018-08-12T13:04:17.385Z,4.23
2018-08-12T13:06:45.586Z,4.40
2018-08-12T13:09:14.318Z,2.10
2018-08-12T13:11:42.593Z,3.33
2018-08-12T13:14:10.778Z,2.07
2018-08-12T13:16:38.728Z,4.00
2018-08-12T13:19:06.863Z,2.03
2018-08-12T13:21:34.911Z,6.40
2018-08-12T13:24:02.896Z,3.53
2018-08-12T13:26:30.893Z,2.63
2018-08-12T13:28:58.945Z,3.63
2018-08-12T13:31:26.955Z,2.60
2018-08-12T13:33:55.956Z,3.90
2018-08-12T13:36:24.101Z,5.00
2018-08-12T13:38:52.344Z,3.33
2018-08-12T13:41:20.718Z,3.00
2018-08-12T13:43:48.979Z,3.30
2018-08-12T13:46:17.207Z,3.43
2018-08-12T13:48:45.805Z,5.30
2018-08-12T13:51:13.985Z,2.33
2018-08-12T13:53:42.134Z,6.23
2018-08-12T13:56:10.404Z,2.00
2018-08-12T13:58:38.670Z,4.53
2018-08-12T14:01:06.686Z,4.60
2018-08-12T14:03:34.732Z,5.70
2018-08-12T14:06:02.768Z,3.90
2018-08-12T14:08:30.734Z,3.67
2018-08-12T14:10:58.829Z,3.77
2018-08-12T14:13:26.975Z,2.40
2018-08-12T14:15:55.071Z,1.90
2018-08-12T14:18:23.273Z,2.90
2018-08-12T14:20:51.567Z,2.93
2018-08-12T14:23:19.829Z,5.13
2018-08-12T14:25:48.147Z,2.30
2018-08-12T14:28:16.819Z,3.20
2018-08-12T14:30:45.009Z,5.27
2018-08-12T14:33:13.209Z,2.47
2018-08-12T14:35:41.238Z,3.30
2018-08-12T14:38:09.256Z,2.27
2018-08-12T14:40:37.338Z,5.20
2018-08-12T14:43:05.382Z,1.93
2018-08-12T14:45:33.336Z,4.50
2018-08-12T14:48:01.336Z,2.90
2018-08-12T14:50:30.348Z,2.50
2018-08-12T14:52:58.493Z,3.50
2018-08-12T14:55:26.710Z,3.77
2018-08-12T14:57:55.013Z,2.47
2018-08-12T15:00:23.247Z,2.90
2018-08-12T15:02:52.507Z,3.10
2018-08-12T15:05:21.009Z,4.47
2018-08-12T15:07:49.567Z,2.70
2018-08-12T15:10:17.843Z,4.80
2018-08-12T15:12:46.121Z,3.80
2018-08-12T15:15:15.822Z,3.10
2018-08-12T15:17:44.915Z,2.53
2018-08-12T15:20:14.389Z,2.10
2018-08-12T15:22:42.933Z,3.50
2018-08-12T15:25:12.757Z,2.47
2018-08-12T15:27:41.296Z,2.90
2018-08-12T15:30:11.008Z,2.83
2018-08-12T15:32:39.188Z,2.20
2018-08-12T15:35:07.813Z,3.23
2018-08-12T15:37:36.667Z,4.83
2018-08-12T15:40:05.489Z,3.57
2018-08-12T15:42:33.555Z,3.20
2018-08-12T15:45:01.577Z,2.73
2018-08-12T15:47:29.686Z,3.50
2018-08-12T15:49:57.935Z,4.10
2018-08-12T15:52:26.190Z,4.47
2018-08-12T15:54:54.553Z,3.23
2018-08-12T15:57:22.785Z,3.60
2018-08-12T15:59:51.174Z,4.50
2018-08-12T16:02:19.469Z,3.17
2018-08-12T16:04:47.738Z,3.83
2018-08-12T16:07:16.052Z,2.47
2018-08-12T16:09:44.071Z,3.20
2018-08-12T16:12:12.293Z,4.07
2018-08-12T16:14:40.301Z,3.40
2018-08-12T16:17:08.332Z,4.83
2018-08-12T16:19:39.741Z,3.53
2018-08-12T16:22:07.777Z,2.43
2018-08-12T16:24:35.888Z,2.90
2018-08-12T16:27:04.073Z,2.70
2018-08-12T16:29:32.070Z,2.63
2018-08-12T16:32:00.143Z,4.70
2018-08-12T16:34:28.144Z,6.60
2018-08-12T16:36:56.389Z,4.90
2018-08-12T16:39:24.485Z,3.87
2018-08-12T16:41:52.717Z,3.20
2018-08-12T16:44:20.847Z,5.80
2018-08-12T16:46:49.047Z,6.80
2018-08-12T16:49:18.635Z,3.83
2018-08-12T16:51:47.491Z,4.60
2018-08-12T16:54:15.786Z,6.37
2018-08-12T16:56:43.972Z,4.53
2018-08-12T16:59:12.136Z,4.07
2018-08-12T17:01:40.126Z,3.33
2018-08-12T17:04:09.246Z,5.27
2018-08-12T17:06:37.391Z,3.80
2018-08-12T17:09:07.495Z,4.67
2018-08-12T17:11:35.498Z,6.47
2018-08-12T17:14:04.029Z,7.70
2018-08-12T17:16:33.067Z,5.40
2018-08-12T17:19:01.115Z,4.10
2018-08-12T17:21:29.276Z,3.33
2018-08-12T17:23:57.684Z,6.73
2018-08-12T17:26:26.005Z,4.47
2018-08-12T17:28:54.135Z,3.23
2018-08-12T17:31:22.271Z,2.90
2018-08-12T17:33:50.751Z,3.83
2018-08-12T17:36:18.941Z,9.10
2018-08-12T17:38:47.435Z,4.13
2018-08-12T17:41:15.467Z,3.70
2018-08-12T17:43:43.687Z,4.90
2018-08-12T17:46:11.663Z,4.10
2018-08-12T17:48:39.790Z,5.33
2018-08-12T17:51:07.877Z,6.77
2018-08-12T17:53:35.858Z,3.87
2018-08-12T17:56:04.860Z,6.17
2018-08-12T17:58:32.909Z,4.13
2018-08-12T18:01:01.038Z,6.03
2018-08-12T18:03:29.007Z,9.23
2018-08-12T18:05:57.168Z,4.70
2018-08-12T18:08:25.222Z,3.60
2018-08-12T18:10:53.349Z,3.93
2018-08-12T18:13:21.415Z,8.90
2018-08-12T18:15:49.996Z,5.70
2018-08-12T18:18:18.213Z,8.30
2018-08-12T18:20:47.204Z,5.23
2018-08-12T18:23:15.821Z,9.50
2018-08-12T18:25:44.008Z,5.57
2018-08-12T18:28:12.153Z,6.30
2018-08-12T18:30:40.150Z,3.10
2018-08-12T18:33:08.189Z,5.30
2018-08-12T18:35:36.156Z,4.20
2018-08-12T18:38:04.172Z,6.97
2018-08-12T18:40:32.199Z,8.93
2018-08-12T18:43:00.439Z,10.97
2018-08-12T18:45:29.198Z,6.63
2018-08-12T18:47:57.322Z,5.63
2018-08-12T18:50:25.400Z,7.80
2018-08-12T18:52:53.571Z,4.53
2018-08-12T18:55:21.751Z,11.20
2018-08-12T18:57:50.012Z,4.43
2018-08-12T19:00:18.293Z,6.50
2018-08-12T19:02:46.935Z,10.77
2018-08-12T19:05:15.196Z,4.97
2018-08-12T19:07:43.494Z,3.87
2018-08-12T19:10:11.884Z,5.73
2018-08-12T19:12:40.620Z,4.37
2018-08-12T19:15:09.479Z,4.57
2018-08-12T19:17:37.632Z,5.00
2018-08-12T19:20:05.974Z,4.80
2018-08-12T19:22:34.041Z,4.97
2018-08-12T19:25:02.019Z,11.77
2018-08-12T19:27:30.032Z,5.90
2018-08-12T19:29:58.244Z,7.50
2018-08-12T19:32:26.625Z,24.47
2018-08-12T19:34:54.734Z,7.00
2018-08-12T19:37:22.942Z,8.83
2018-08-12T19:39:51.263Z,8.13
2018-08-12T19:42:19.649Z,13.87
2018-08-12T19:44:48.161Z,6.30
2018-08-12T19:47:16.422Z,9.43
2018-08-12T19:49:44.736Z,5.40
2018-08-12T19:52:13.089Z,5.63
2018-08-12T19:54:41.401Z,9.07
2018-08-12T19:57:09.332Z,10.73
2018-08-12T19:59:37.300Z,8.87
2018-08-12T20:02:05.524Z,9.87
2018-08-12T20:04:33.525Z,7.77
2018-08-12T20:07:01.940Z,10.27
2018-08-12T20:09:29.873Z,5.73
2018-08-12T20:11:58.045Z,5.03
2018-08-12T20:14:26.162Z,7.23
2018-08-12T20:16:54.417Z,7.57
2018-08-12T20:19:22.619Z,7.00
2018-08-12T20:21:51.012Z,18.07
2018-08-12T20:24:19.764Z,8.77
2018-08-12T20:26:48.353Z,12.43
2018-08-12T20:29:16.661Z,6.70
2018-08-12T20:31:44.726Z,9.70
2018-08-12T20:34:13.969Z,10.93
2018-08-12T20:36:42.084Z,6.20
2018-08-12T20:39:12.324Z,9.00
2018-08-12T20:41:40.601Z,7.87
2018-08-12T20:44:08.567Z,6.07
2018-08-12T20:46:36.527Z,9.10
2018-08-12T20:49:05.568Z,12.40
2018-08-12T20:51:33.564Z,14.97
2018-08-12T20:54:01.520Z,7.07
2018-08-12T20:56:29.514Z,13.50
2018-08-12T20:58:57.558Z,9.37
2018-08-12T21:01:26.069Z,7.57
2018-08-12T21:03:54.366Z,10.30
2018-08-12T21:06:22.688Z,9.40
2018-08-12T21:08:51.083Z,13.93
2018-08-12T21:11:19.458Z,9.40
2018-08-12T21:13:48.160Z,14.13
2018-08-12T21:16:16.616Z,8.60
2018-08-12T21:18:44.949Z,11.30
2018-08-12T21:21:13.105Z,10.70
2018-08-12T21:23:41.200Z,11.33
2018-08-12T21:26:09.675Z,13.73
2018-08-12T21:28:38.041Z,14.20
2018-08-12T21:31:05.986Z,15.50
2018-08-12T21:33:33.956Z,10.30
2018-08-12T21:36:01.999Z,7.13
2018-08-12T21:38:30.555Z,5.97
2018-08-12T21:40:58.663Z,7.10
2018-08-12T21:43:26.985Z,5.77
2018-08-12T21:45:55.236Z,10.20
2018-08-12T21:48:23.761Z,10.27
2018-08-12T21:50:52.054Z,6.37
2018-08-12T21:53:20.435Z,10.40
2018-08-12T21:55:48.759Z,9.40
2018-08-12T21:58:17.115Z,8.00
2018-08-12T22:00:45.319Z,6.77
2018-08-12T22:03:13.699Z,6.00
2018-08-12T22:05:41.627Z,10.30
2018-08-12T22:08:09.998Z,9.97
2018-08-12T22:10:39.160Z,5.50
2018-08-12T22:13:07.462Z,9.90
2018-08-12T22:15:35.487Z,8.83
2018-08-12T22:18:03.496Z,5.70
2018-08-12T22:20:31.461Z,4.90
2018-08-12T22:22:59.404Z,6.40
2018-08-12T22:25:27.887Z,6.20
2018-08-12T22:27:56.095Z,6.27
2018-08-12T22:30:24.318Z,8.23
2018-08-12T22:32:52.522Z,7.23
2018-08-12T22:35:20.798Z,6.40
2018-08-12T22:37:49.223Z,4.70
2018-08-12T22:40:17.873Z,6.90
2018-08-12T22:42:46.086Z,5.40
2018-08-12T22:45:14.314Z,6.57
2018-08-12T22:47:42.673Z,6.47
2018-08-12T22:50:10.724Z,6.03
2018-08-12T22:52:38.916Z,6.43
2018-08-12T22:55:07.453Z,4.77
2018-08-12T22:57:35.609Z,4.87
2018-08-12T23:00:05.151Z,5.63
2018-08-12T23:02:33.063Z,5.20
2018-08-12T23:05:01.002Z,5.50
2018-08-12T23:07:28.964Z,5.90
2018-08-12T23:09:57.207Z,4.60
2018-08-12T23:12:25.352Z,7.60
2018-08-12T23:14:55.370Z,12.13
2018-08-12T23:17:23.497Z,7.00
2018-08-12T23:19:51.602Z,6.27
2018-08-12T23:22:19.817Z,5.63
2018-08-12T23:24:47.983Z,5.17
2018-08-12T23:27:16.038Z,5.40
2018-08-12T23:29:43.964Z,5.60
2018-08-12T23:32:12.065Z,5.33
2018-08-12T23:34:40.038Z,4.40
2018-08-12T23:37:07.941Z,5.63
2018-08-12T23:39:35.897Z,5.40
2018-08-12T23:42:03.896Z,13.73
2018-08-12T23:44:31.867Z,6.97
2018-08-12T23:46:59.888Z,5.90
2018-08-12T23:49:27.949Z,5.50
2018-08-12T23:51:56.147Z,7.10
2018-08-12T23:54:24.378Z,9.40
2018-08-12T23:56:52.389Z,5.97
2018-08-12T23:59:20.527Z,4.80
